Time;durP1;ratioP1;P1;durP2;ratioP2;P2;SDS_P1;SDS_P2;PMS_P1;PMS_P2;Temp;Humidity;BMP_temperature;BMP_pressure;BME280_temperature;BME280_humidity;BME280_pressure;Samples;Min_cycle;Max_cycle;Signal;HPM_P1;HPM_P2
2022/04/22 00:02:21;;;;;;;4.87;4.17;;;9.70;99.90;;;;;;5071543;28;20259;-56
2022/04/22 00:04:48;;;;;;;6.30;4.60;;;9.70;99.90;;;;;;5071499;28;20286;-57
2022/04/22 00:07:14;;;;;;;5.47;4.07;;;9.70;99.90;;;;;;5071883;28;20212;-56
2022/04/22 00:09:41;;;;;;;5.47;4.50;;;9.80;99.90;;;;;;5071805;28;20228;-57
2022/04/22 00:12:09;;;;;;;5.67;4.90;;;9.80;99.90;;;;;;5071557;28;20262;-56
2022/04/22 00:14:36;;;;;;;6.13;5.00;;;9.80;99.90;;;;;;5071614;28;20212;-57
2022/04/22 00:17:04;;;;;;;5.57;4.30;;;9.70;99.90;;;;;;5071483;28;20201;-56
2022/04/22 00:19:31;;;;;;;6.00;4.90;;;9.70;99.90;;;;;;5071404;28;20236;-57
2022/04/22 00:21:57;;;;;;;5.87;4.50;;;9.70;99.90;;;;;;5071148;28;20609;-57
2022/04/22 00:24:24;;;;;;;5.20;4.60;;;9.70;99.90;;;;;;5071409;28;20730;-56
2022/04/22 00:26:51;;;;;;;6.73;5.40;;;9.60;99.90;;;;;;5071521;28;20263;-57
2022/04/22 00:29:17;;;;;;;5.27;4.77;;;9.60;99.90;;;;;;5071310;28;20221;-56
2022/04/22 00:31:44;;;;;;;5.73;5.13;;;9.60;99.90;;;;;;5071134;28;20212;-57
2022/04/22 00:34:12;;;;;;;6.10;5.20;;;9.50;99.90;;;;;;5071413;28;20708;-57
2022/04/22 00:36:39;;;;;;;6.27;5.30;;;9.50;99.90;;;;;;5071640;28;20665;-57
2022/04/22 00:39:06;;;;;;;6.17;5.57;;;9.50;99.90;;;;;;5071306;28;20270;-57
2022/04/22 00:41:33;;;;;;;7.37;5.70;;;9.50;99.90;;;;;;5071159;28;20296;-57
2022/04/22 00:43:59;;;;;;;7.10;5.43;;;9.50;99.90;;;;;;5073605;28;20295;-57
2022/04/22 00:46:26;;;;;;;8.30;5.63;;;9.50;99.90;;;;;;5074713;28;20274;-57
2022/04/22 00:48:53;;;;;;;6.33;5.33;;;9.50;99.90;;;;;;5075045;28;20205;-57
2022/04/22 00:51:22;;;;;;;8.50;5.83;;;9.40;99.90;;;;;;5074714;28;20209;-57
2022/04/22 00:53:50;;;;;;;7.10;6.17;;;9.40;99.90;;;;;;5074838;28;20204;-57
2022/04/22 00:56:18;;;;;;;10.53;6.90;;;9.40;99.90;;;;;;5074595;28;20204;-57
2022/04/22 00:58:46;;;;;;;7.53;6.27;;;9.40;99.90;;;;;;5074641;28;20208;-57
2022/04/22 01:01:14;;;;;;;7.97;6.70;;;9.40;99.90;;;;;;5074618;28;20274;-57
2022/04/22 01:09:47;;;;;;;7.30;6.37;;;9.30;99.90;;;;;;5074746;28;20209;-57
2022/04/22 01:11:56;;;;;;;10.20;6.87;;;9.10;99.90;;;;;;5074288;28;20605;-57
2022/04/22 01:14:22;;;;;;;7.57;6.37;;;9.10;99.90;;;;;;5074787;28;20629;-57
2022/04/22 01:16:49;;;;;;;9.40;7.50;;;9.10;99.90;;;;;;5074505;28;20270;-57
2022/04/22 01:19:16;;;;;;;8.67;7.23;;;9.00;99.90;;;;;;5074347;28;20616;-57
2022/04/22 01:21:44;;;;;;;8.73;7.80;;;9.00;99.90;;;;;;5074052;28;20688;-57
2022/04/22 01:24:10;;;;;;;10.37;7.63;;;9.00;99.90;;;;;;5074193;28;20560;-57
2022/04/22 01:26:37;;;;;;;10.43;7.53;;;8.90;99.90;;;;;;5074267;28;20574;-57
2022/04/22 01:29:05;;;;;;;9.30;7.70;;;8.90;99.90;;;;;;5074187;28;20229;-57
2022/04/22 01:31:32;;;;;;;9.23;7.67;;;9.00;99.90;;;;;;5073980;28;20582;-57
2022/04/22 01:33:58;;;;;;;9.63;7.73;;;9.00;99.90;;;;;;5074457;28;20669;-57
2022/04/22 01:36:25;;;;;;;10.90;7.53;;;9.00;99.90;;;;;;5073902;28;20208;-57
2022/04/22 01:38:54;;;;;;;11.30;8.40;;;9.00;99.90;;;;;;5074073;28;20209;-56
2022/04/22 01:41:21;;;;;;;9.30;8.30;;;9.10;99.90;;;;;;5073821;28;20212;-56
2022/04/22 01:43:47;;;;;;;10.10;8.60;;;9.00;99.90;;;;;;5073938;28;20205;-57
2022/04/22 01:46:15;;;;;;;10.73;8.37;;;8.90;99.90;;;;;;5073789;28;20224;-56
2022/04/22 01:48:42;;;;;;;9.13;7.87;;;8.90;99.90;;;;;;5073688;28;20204;-56
2022/04/22 01:51:08;;;;;;;10.10;8.23;;;8.90;99.90;;;;;;5073929;28;20204;-56
2022/04/22 01:53:35;;;;;;;13.70;8.10;;;8.90;99.90;;;;;;5073746;28;20231;-56
2022/04/22 01:56:03;;;;;;;11.60;7.50;;;8.80;99.90;;;;;;5073114;28;20205;-56
2022/04/22 01:58:30;;;;;;;9.03;7.70;;;8.70;99.90;;;;;;5073580;28;20209;-59
2022/04/22 02:00:57;;;;;;;9.03;8.00;;;8.70;99.90;;;;;;5073560;28;20569;-58
2022/04/22 02:03:23;;;;;;;9.40;7.93;;;8.70;99.90;;;;;;5073382;28;20664;-57
2022/04/22 02:05:50;;;;;;;9.33;7.87;;;8.70;99.90;;;;;;5073264;28;20221;-57
2022/04/22 02:08:17;;;;;;;9.07;8.17;;;8.70;99.90;;;;;;5073508;28;20204;-56
2022/04/22 02:10:44;;;;;;;10.23;8.03;;;8.70;99.90;;;;;;5073029;28;20256;-56
2022/04/22 02:13:12;;;;;;;10.37;8.27;;;8.70;99.90;;;;;;5073415;28;20212;-57
2022/04/22 02:15:38;;;;;;;12.33;8.83;;;8.70;99.90;;;;;;5073143;28;20239;-56
2022/04/22 02:18:06;;;;;;;11.97;8.50;;;8.60;99.90;;;;;;5073221;28;20262;-57
2022/04/22 02:20:33;;;;;;;10.53;9.07;;;8.60;99.90;;;;;;5072748;28;20785;-60
2022/04/22 02:23:01;;;;;;;10.17;9.07;;;8.60;99.90;;;;;;5073296;28;20546;-58
2022/04/22 02:25:28;;;;;;;10.70;9.30;;;8.60;99.90;;;;;;5073008;28;20267;-58
2022/04/22 02:30:40;;;;;;;12.17;9.30;;;8.50;99.90;;;;;;5072699;28;20227;-58
2022/04/22 02:33:07;;;;;;;10.97;8.80;;;8.50;99.90;;;;;;5073059;28;20625;-58
2022/04/22 02:35:33;;;;;;;10.57;9.23;;;8.50;99.90;;;;;;5073003;28;20263;-58
2022/04/22 02:38:00;;;;;;;11.50;9.87;;;8.50;99.90;;;;;;5072906;28;20213;-58
2022/04/22 02:45:57;;;;;;;12.03;9.83;;;8.50;99.90;;;;;;5072850;28;20224;-58
2022/04/22 02:48:23;;;;;;;11.83;10.43;;;8.50;99.90;;;;;;5072711;28;20632;-57
2022/04/22 02:50:50;;;;;;;12.37;10.47;;;8.50;99.90;;;;;;5072145;28;20648;-57
2022/04/22 02:53:17;;;;;;;11.27;10.07;;;8.50;99.90;;;;;;5072493;28;20205;-57
2022/04/22 02:55:48;;;;;;;12.07;10.77;;;8.50;99.90;;;;;;5072510;28;20197;-57
2022/04/22 02:58:15;;;;;;;13.90;10.30;;;8.40;99.90;;;;;;5072660;28;20209;-57
2022/04/22 03:00:42;;;;;;;13.73;9.90;;;8.40;99.90;;;;;;5072022;28;20229;-57
2022/04/22 03:03:10;;;;;;;14.27;10.70;;;8.40;99.90;;;;;;5072549;28;20254;-57
2022/04/22 03:05:37;;;;;;;13.53;11.07;;;8.30;99.90;;;;;;5072206;28;20236;-57
2022/04/22 03:08:05;;;;;;;12.43;10.40;;;8.30;99.90;;;;;;5071392;28;20262;-57
2022/04/22 03:10:32;;;;;;;13.87;11.17;;;8.30;99.90;;;;;;5072191;28;20235;-57
2022/04/22 03:12:59;;;;;;;15.17;10.97;;;8.30;99.90;;;;;;5072371;28;20200;-59
2022/04/22 03:15:26;;;;;;;13.87;11.17;;;8.20;99.90;;;;;;5072256;28;20204;-57
2022/04/22 03:17:53;;;;;;;16.53;12.00;;;8.20;99.90;;;;;;5072111;28;20300;-57
2022/04/22 03:20:21;;;;;;;15.87;11.60;;;8.20;99.90;;;;;;5071919;28;20653;-57
2022/04/22 03:22:47;;;;;;;16.77;12.27;;;8.20;99.90;;;;;;5071911;28;20632;-57
2022/04/22 03:25:16;;;;;;;13.60;10.30;;;8.10;99.90;;;;;;5072140;28;20329;-57
2022/04/22 03:27:42;;;;;;;16.13;12.10;;;8.20;99.90;;;;;;5072003;28;20221;-57
2022/04/22 03:30:10;;;;;;;13.97;12.03;;;8.10;99.90;;;;;;5072003;28;20615;-58
2022/04/22 03:32:37;;;;;;;14.50;11.40;;;8.10;99.90;;;;;;5072107;28;20217;-57
2022/04/22 03:35:04;;;;;;;14.17;12.07;;;8.10;99.90;;;;;;5072122;28;20205;-58
2022/04/22 03:37:32;;;;;;;17.13;12.03;;;8.10;99.90;;;;;;5072139;28;20197;-58
2022/04/22 03:39:59;;;;;;;17.50;13.17;;;8.10;99.90;;;;;;5071904;28;20233;-57
2022/04/22 03:42:27;;;;;;;15.83;12.93;;;8.10;99.90;;;;;;5071610;28;20259;-57
2022/04/22 03:44:55;;;;;;;17.07;13.87;;;8.10;99.90;;;;;;5071891;28;20205;-57
2022/04/22 03:47:22;;;;;;;15.70;12.50;;;8.00;99.90;;;;;;5072066;28;20221;-58
2022/04/22 03:49:49;;;;;;;16.17;12.87;;;8.00;99.90;;;;;;5071586;28;20239;-58
2022/04/22 03:52:15;;;;;;;14.90;12.30;;;8.00;99.90;;;;;;5071706;28;20208;-58
2022/04/22 03:54:43;;;;;;;16.93;11.07;;;8.10;99.90;;;;;;5071570;28;20665;-58
2022/04/22 03:59:54;;;;;;;22.63;15.10;;;8.10;99.90;;;;;;5071719;28;20343;-58
2022/04/22 04:02:21;;;;;;;15.73;11.40;;;8.00;99.90;;;;;;5071381;28;20211;-58
2022/04/22 04:04:48;;;;;;;18.33;12.07;;;8.00;99.90;;;;;;5071897;28;20215;-58
2022/04/22 04:07:15;;;;;;;14.67;11.60;;;8.00;99.90;;;;;;5071675;28;20315;-58
2022/04/22 04:17:56;;;;;;;19.17;15.27;;;7.70;99.90;;;;;;5072617;28;20212;-58
2022/04/22 04:23:17;;;;;;;21.10;16.60;;;7.80;99.90;;;;;;5075411;28;20583;-58
2022/04/22 04:25:47;;;;;;;19.70;14.83;;;7.80;99.90;;;;;;5075782;28;20244;-58
2022/04/22 04:28:15;;;;;;;20.00;15.33;;;7.80;99.90;;;;;;5075740;28;20287;-58
2022/04/22 04:30:44;;;;;;;19.23;15.00;;;7.80;99.90;;;;;;5075383;28;20232;-58
2022/04/22 04:33:11;;;;;;;21.50;15.53;;;7.90;99.90;;;;;;5075740;28;20505;-58
2022/04/22 04:35:39;;;;;;;20.93;15.17;;;7.90;99.90;;;;;;5075368;28;20300;-58
2022/04/22 04:38:07;;;;;;;21.30;14.77;;;7.90;99.90;;;;;;5075113;28;20292;-58
2022/04/22 04:40:34;;;;;;;19.03;14.50;;;8.00;99.90;;;;;;5074798;28;20233;-58
2022/04/22 04:43:03;;;;;;;17.93;15.10;;;8.00;99.90;;;;;;5075200;28;20208;-57
2022/04/22 04:45:30;;;;;;;20.33;14.60;;;8.10;99.90;;;;;;5075232;28;20208;-59
2022/04/22 04:47:57;;;;;;;18.60;15.20;;;8.10;99.90;;;;;;5075141;28;20252;-59
2022/04/22 04:50:24;;;;;;;18.97;14.70;;;8.20;99.90;;;;;;5075025;28;20236;-59
2022/04/22 04:52:51;;;;;;;21.27;14.37;;;8.20;99.90;;;;;;5074699;28;20661;-59
2022/04/22 04:55:17;;;;;;;19.40;15.77;;;8.30;99.90;;;;;;5074960;28;20262;-59
2022/04/22 04:57:44;;;;;;;18.27;14.73;;;8.40;99.90;;;;;;5074970;28;20204;-59
2022/04/22 05:00:14;;;;;;;19.63;14.37;;;8.50;99.90;;;;;;5074630;28;20221;-58
2022/04/22 05:02:40;;;;;;;19.93;15.37;;;8.70;99.90;;;;;;5074365;28;20208;-58
2022/04/22 05:05:09;;;;;;;18.87;15.57;;;8.80;99.90;;;;;;5074884;28;20209;-57
2022/04/22 05:07:47;;;;;;;19.23;15.87;;;8.90;99.90;;;;;;5074371;28;20601;-56
2022/04/22 05:10:13;;;;;;;17.77;14.57;;;9.00;99.90;;;;;;5074589;28;20275;-56
2022/04/22 05:12:41;;;;;;;20.73;15.13;;;9.10;99.90;;;;;;5074266;28;20204;-57
2022/04/22 05:15:10;;;;;;;18.33;15.07;;;9.20;99.90;;;;;;5074841;28;20308;-56
2022/04/22 05:17:39;;;;;;;22.07;15.07;;;9.30;99.90;;;;;;5074261;28;20749;-56
2022/04/22 05:20:07;;;;;;;19.77;16.40;;;9.40;99.90;;;;;;5071990;28;20969;-56
2022/04/22 05:22:33;;;;;;;17.03;15.03;;;9.50;99.90;;;;;;5073001;28;20213;-59
2022/04/22 05:25:00;;;;;;;19.73;15.37;;;9.60;99.90;;;;;;5074290;28;20205;-60
2022/04/22 05:27:26;;;;;;;18.03;14.43;;;9.80;99.90;;;;;;5074078;28;20250;-59
2022/04/22 05:32:39;;;;;;;16.40;13.70;;;10.00;99.90;;;;;;5073983;28;20293;-59
2022/04/22 05:35:07;;;;;;;17.83;15.07;;;10.20;99.90;;;;;;5073851;28;20236;-63
2022/04/22 05:37:48;;;;;;;17.60;14.70;;;10.30;99.90;;;;;;5074109;28;20205;-62
2022/04/22 05:40:16;;;;;;;17.67;13.67;;;10.50;99.90;;;;;;5073589;28;20258;-61
2022/04/22 05:42:43;;;;;;;17.10;12.97;;;11.20;99.90;;;;;;5073989;28;20249;-60
2022/04/22 05:45:11;;;;;;;15.97;13.77;;;12.40;99.90;;;;;;5073953;28;20205;-60
2022/04/22 05:47:39;;;;;;;14.93;13.33;;;13.60;99.90;;;;;;5073433;28;20224;-59
2022/04/22 05:50:08;;;;;;;14.90;12.87;;;14.70;99.70;;;;;;5073564;28;20232;-60
2022/04/22 05:52:35;;;;;;;15.07;12.90;;;15.60;97.10;;;;;;5073590;28;20215;-62
2022/04/22 05:55:03;;;;;;;13.57;12.17;;;16.40;94.70;;;;;;5073832;28;20664;-58
2022/04/22 05:57:31;;;;;;;16.27;13.23;;;17.00;93.30;;;;;;5073584;28;20669;-58
2022/04/22 05:59:58;;;;;;;14.67;13.17;;;17.50;92.40;;;;;;5073431;28;20224;-58
2022/04/22 06:02:25;;;;;;;13.90;11.70;;;18.20;91.40;;;;;;5073323;28;20233;-58
2022/04/22 06:04:53;;;;;;;13.93;12.43;;;18.90;88.90;;;;;;5073553;28;20350;-58
2022/04/22 06:07:20;;;;;;;14.18;11.73;;;19.40;85.80;;;;;;5073194;28;20221;-58
2022/04/22 06:12:31;;;;;;;15.82;12.60;;;20.10;81.50;;;;;;5073216;28;20779;-58
2022/04/22 06:14:59;;;;;;;16.33;12.63;;;20.30;80.40;;;;;;5073253;28;20624;-58
2022/04/22 06:17:27;;;;;;;13.95;12.25;;;20.80;78.40;;;;;;5073098;28;20684;-59
2022/04/22 06:19:56;;;;;;;12.85;11.05;;;21.20;77.50;;;;;;5073000;28;20335;-58
2022/04/22 06:22:22;;;;;;;13.40;12.00;;;21.80;74.70;;;;;;5073235;28;20295;-58
2022/04/22 06:24:49;;;;;;;16.35;12.15;;;22.30;72.50;;;;;;5073404;28;20379;-58
2022/04/22 06:27:24;;;;;;;13.35;11.95;;;22.70;70.00;;;;;;5073298;28;20229;-58
2022/04/22 06:29:51;;;;;;;13.52;12.13;;;22.00;71.10;;;;;;5072973;28;20703;-58
2022/04/22 06:32:18;;;;;;;13.00;11.55;;;22.00;70.90;;;;;;5073001;28;20205;-58
2022/04/22 06:34:47;;;;;;;12.90;11.60;;;22.30;69.80;;;;;;5073064;28;20205;-58
2022/04/22 06:37:15;;;;;;;14.35;12.90;;;22.60;68.30;;;;;;5073216;28;20200;-58
2022/04/22 06:48:09;;;;;;;12.98;11.68;;;23.80;64.10;;;;;;5030359;28;20741;-59
2022/04/22 06:50:36;;;;;;;13.85;12.27;;;23.60;63.70;;;;;;5062194;28;20239;-58
2022/04/22 06:53:05;;;;;;;12.20;11.00;;;23.50;63.90;;;;;;5071982;28;20201;-58
2022/04/22 06:55:32;;;;;;;12.82;11.52;;;23.50;63.90;;;;;;5073347;28;20665;-58
2022/04/22 06:58:01;;;;;;;12.82;11.50;;;23.50;63.80;;;;;;5072812;28;20201;-58
2022/04/22 07:00:28;;;;;;;12.25;10.95;;;23.40;63.30;;;;;;5073000;28;20228;-59
2022/04/22 07:02:55;;;;;;;12.50;11.18;;;23.20;63.80;;;;;;5072609;28;20586;-58
2022/04/22 07:05:23;;;;;;;12.00;10.70;;;23.50;63.30;;;;;;5072638;28;20582;-58
2022/04/22 07:07:50;;;;;;;11.55;10.45;;;23.90;62.00;;;;;;5072522;28;20273;-59
2022/04/22 07:10:19;;;;;;;11.93;10.73;;;24.50;61.10;;;;;;5073224;28;20233;-58
2022/04/22 07:12:46;;;;;;;13.05;11.75;;;24.70;60.30;;;;;;5072349;28;20211;-58
2022/04/22 07:15:13;;;;;;;12.35;11.05;;;24.60;59.70;;;;;;5072345;28;20208;-58
2022/04/22 07:17:41;;;;;;;12.32;11.13;;;24.80;59.60;;;;;;5072221;28;20200;-58
2022/04/22 07:20:11;;;;;;;12.20;10.90;;;25.40;59.40;;;;;;5071983;28;20229;-59
2022/04/22 07:22:38;;;;;;;15.32;11.40;;;26.00;57.60;;;;;;5072420;28;20216;-59
2022/04/22 07:25:06;;;;;;;12.65;11.35;;;26.40;56.40;;;;;;5072255;28;20205;-58
2022/04/22 07:27:37;;;;;;;11.27;10.10;;;26.20;56.60;;;;;;5072123;28;20221;-58
2022/04/22 07:30:07;;;;;;;12.35;11.10;;;25.80;57.00;;;;;;5072147;28;20274;-58
2022/04/22 07:32:35;;;;;;;11.77;10.65;;;25.70;56.90;;;;;;5071541;28;20258;-58
2022/04/22 07:35:02;;;;;;;11.00;9.52;;;25.60;57.00;;;;;;5071893;28;20299;-58
2022/04/22 07:37:29;;;;;;;11.85;10.75;;;25.90;56.80;;;;;;5071969;28;20209;-58
2022/04/22 07:39:56;;;;;;;11.95;10.55;;;26.00;56.00;;;;;;5071967;28;20655;-59
2022/04/22 07:42:23;;;;;;;11.90;10.70;;;25.80;56.40;;;;;;5072308;28;20282;-59
2022/04/22 07:47:38;;;;;;;11.43;10.30;;;26.00;56.00;;;;;;5072276;28;20710;-58
2022/04/22 07:50:06;;;;;;;11.35;10.25;;;25.60;56.30;;;;;;5086330;22;20240;-56
2022/04/22 07:52:34;;;;;;;11.15;10.05;;;25.70;56.00;;;;;;5071392;28;20212;-57
2022/04/22 07:55:01;;;;;;;11.77;10.57;;;25.90;55.80;;;;;;5072324;28;20258;-58
2022/04/22 07:57:28;;;;;;;12.05;10.90;;;25.80;55.70;;;;;;5071945;28;20292;-57
2022/04/22 07:59:57;;;;;;;11.85;10.73;;;25.20;56.60;;;;;;5071610;28;20235;-57
2022/04/22 08:02:25;;;;;;;11.25;10.15;;;25.10;57.10;;;;;;5071875;28;20282;-57
2022/04/22 08:04:52;;;;;;;12.05;10.48;;;25.60;56.20;;;;;;5072128;28;20262;-58
2022/04/22 08:07:19;;;;;;;11.00;9.90;;;25.80;56.00;;;;;;5071968;28;20224;-57
2022/04/22 08:09:46;;;;;;;12.02;10.80;;;25.90;55.60;;;;;;5071716;28;20646;-57
2022/04/22 08:12:14;;;;;;;11.38;10.25;;;25.90;55.30;;;;;;5071584;28;20208;-56
2022/04/22 08:14:40;;;;;;;10.93;9.88;;;24.80;57.60;;;;;;5072169;28;20205;-57
2022/04/22 08:17:09;;;;;;;12.00;10.48;;;24.30;58.00;;;;;;5071599;28;20201;-57
2022/04/22 08:19:35;;;;;;;11.75;10.55;;;24.40;58.10;;;;;;5071731;28;20229;-57
2022/04/22 08:22:02;;;;;;;13.02;10.57;;;24.00;58.20;;;;;;5071579;28;20714;-57
2022/04/22 08:24:29;;;;;;;20.30;18.10;;;22.80;60.10;;;;;;5071902;28;20209;-57
2022/04/22 08:26:58;;;;;;;12.65;11.35;;;21.30;62.60;;;;;;5071500;28;20598;-57
2022/04/22 08:29:25;;;;;;;12.20;10.90;;;20.00;65.40;;;;;;5071659;28;20236;-57
2022/04/22 08:31:52;;;;;;;12.38;11.13;;;19.00;68.70;;;;;;5071396;28;20702;-57
2022/04/22 08:34:20;;;;;;;12.35;11.13;;;18.20;71.40;;;;;;5071465;28;20209;-57
2022/04/22 08:36:47;;;;;;;12.02;10.50;;;17.40;73.00;;;;;;5071625;28;20243;-57
2022/04/22 08:39:14;;;;;;;12.40;11.10;;;16.90;75.00;;;;;;5071598;28;20612;-56
2022/04/22 08:41:42;;;;;;;13.50;11.33;;;16.30;77.20;;;;;;5071034;28;20209;-56
2022/04/22 08:44:13;;;;;;;13.47;11.47;;;16.00;78.90;;;;;;5071522;28;20208;-57
2022/04/22 08:52:11;;;;;;;11.57;10.37;;;15.60;81.90;;;;;;5071232;28;20212;-56
2022/04/22 08:54:43;;;;;;;12.50;11.20;;;15.40;83.10;;;;;;5071639;28;20296;-56
2022/04/22 08:57:10;;;;;;;12.40;11.10;;;15.40;84.10;;;;;;5071537;28;20213;-56
2022/04/22 08:59:37;;;;;;;12.97;11.67;;;15.40;84.10;;;;;;5071464;28;20274;-56
2022/04/22 09:02:04;;;;;;;12.20;10.90;;;15.50;84.10;;;;;;5071273;28;20201;-56
2022/04/22 09:04:32;;;;;;;13.57;11.40;;;15.60;84.50;;;;;;5071562;28;20299;-57
2022/04/22 09:07:00;;;;;;;12.20;10.83;;;15.50;85.60;;;;;;5075052;28;20209;-56
2022/04/22 09:09:28;;;;;;;12.30;10.67;;;15.60;85.20;;;;;;5074793;28;20232;-57
2022/04/22 09:12:07;;;;;;;13.03;11.50;;;15.60;85.40;;;;;;5074454;28;20204;-57
2022/04/22 09:14:34;;;;;;;12.10;10.77;;;15.70;85.40;;;;;;5074848;28;20232;-57
2022/04/22 09:17:01;;;;;;;12.73;10.87;;;15.80;85.60;;;;;;5074707;28;20267;-56
2022/04/22 09:19:36;;;;;;;11.17;10.07;;;15.80;85.20;;;;;;5074772;28;20657;-57
2022/04/22 09:22:03;;;;;;;12.13;10.20;;;15.80;85.00;;;;;;5074393;28;20204;-56
2022/04/22 09:24:30;;;;;;;12.30;10.50;;;15.80;85.70;;;;;;5074613;28;20209;-56
2022/04/22 09:27:08;;;;;;;14.60;10.53;;;15.90;85.30;;;;;;5074534;28;20209;-56
2022/04/22 09:29:50;;;;;;;10.90;9.80;;;16.00;85.10;;;;;;5074819;28;20228;-56
2022/04/22 09:32:22;;;;;;;11.23;10.03;;;16.00;85.20;;;;;;5074308;28;20236;-56
2022/04/22 09:34:51;;;;;;;10.83;9.73;;;16.10;84.30;;;;;;5074382;28;20205;-56
2022/04/22 09:42:50;;;;;;;10.73;9.63;;;16.30;84.30;;;;;;5074092;28;20238;-56
2022/04/22 09:45:17;;;;;;;13.07;9.53;;;16.50;84.60;;;;;;5074143;28;20677;-57
2022/04/22 09:47:44;;;;;;;9.60;8.47;;;16.80;83.60;;;;;;5074460;28;20221;-56
2022/04/22 09:50:14;;;;;;;10.93;8.73;;;16.90;83.30;;;;;;5073835;28;20236;-56
2022/04/22 09:52:46;;;;;;;10.07;8.75;;;17.00;83.40;;;;;;5073844;28;20300;-57
2022/04/22 09:55:15;;;;;;;10.27;9.17;;;17.10;82.90;;;;;;5056569;28;20213;-56
2022/04/22 09:57:53;;;;;;;10.93;8.50;;;17.10;81.50;;;;;;5074054;28;20530;-57
2022/04/22 10:00:21;;;;;;;11.38;9.20;;;17.20;82.50;;;;;;5073746;28;20324;-57
2022/04/22 10:02:51;;;;;;;9.70;8.70;;;17.20;81.90;;;;;;5073659;28;20209;-57
2022/04/22 10:05:20;;;;;;;9.87;8.80;;;17.20;81.60;;;;;;5074028;28;20205;-57
2022/04/22 10:07:51;;;;;;;13.18;8.63;;;17.20;81.80;;;;;;5073570;28;20235;-57
2022/04/22 10:10:19;;;;;;;9.95;8.98;;;17.30;81.80;;;;;;5073464;28;20225;-57
2022/04/22 10:12:48;;;;;;;12.13;9.93;;;17.30;82.40;;;;;;5073821;28;20304;-57
2022/04/22 10:15:17;;;;;;;11.00;9.90;;;17.30;82.80;;;;;;5073177;28;20209;-57
2022/04/22 10:17:45;;;;;;;10.55;9.45;;;17.40;83.00;;;;;;5073449;28;20205;-57
2022/04/22 10:20:13;;;;;;;11.53;9.67;;;17.40;82.90;;;;;;5073600;28;20585;-56
2022/04/22 10:22:42;;;;;;;11.50;10.10;;;17.50;82.10;;;;;;5073311;28;20205;-56
2022/04/22 10:25:10;;;;;;;10.43;9.17;;;17.40;82.40;;;;;;5073484;28;20228;-56
2022/04/22 10:27:38;;;;;;;11.82;9.07;;;17.30;83.10;;;;;;5072943;28;20299;-56
2022/04/22 10:30:06;;;;;;;10.57;9.20;;;17.30;82.90;;;;;;5073518;28;20256;-57
2022/04/22 10:32:33;;;;;;;10.75;9.18;;;17.30;82.00;;;;;;5073191;28;20215;-57
2022/04/22 10:35:03;;;;;;;12.73;9.85;;;17.50;82.60;;;;;;5073633;28;20212;-56
2022/04/22 10:37:31;;;;;;;12.38;10.30;;;17.80;81.70;;;;;;5072983;28;20205;-56
2022/04/22 10:40:00;;;;;;;10.82;9.73;;;17.80;81.90;;;;;;5072815;28;20778;-56
2022/04/22 10:42:31;;;;;;;10.68;9.27;;;17.90;80.90;;;;;;5072916;28;20714;-56
2022/04/22 10:47:47;;;;;;;11.10;8.75;;;18.00;81.50;;;;;;5073051;28;20288;-56
2022/04/22 10:50:25;;;;;;;9.60;8.60;;;18.20;80.80;;;;;;5072532;28;20785;-56
2022/04/22 10:53:06;;;;;;;10.57;9.23;;;18.40;79.30;;;;;;5072329;28;20258;-56
2022/04/22 10:55:36;;;;;;;9.95;8.95;;;18.60;80.20;;;;;;5072989;28;20291;-56
2022/04/22 10:58:25;;;;;;;15.02;10.35;;;18.80;79.70;;;;;;5073259;28;20204;-56
2022/04/22 11:00:54;;;;;;;10.52;9.43;;;18.80;78.60;;;;;;5072837;28;20224;-57
2022/04/22 11:03:22;;;;;;;10.27;9.27;;;18.80;78.70;;;;;;5072141;28;20722;-55
2022/04/22 11:05:55;;;;;;;11.23;9.85;;;18.80;78.90;;;;;;5073024;28;20299;-56
2022/04/22 11:08:28;;;;;;;10.93;9.27;;;19.00;78.50;;;;;;5072454;28;20592;-56
2022/04/22 11:11:13;;;;;;;9.85;8.85;;;19.40;78.50;;;;;;5072260;28;20741;-56
2022/04/22 11:13:42;;;;;;;11.00;9.90;;;19.50;77.00;;;;;;5072126;28;20682;-56
2022/04/22 11:16:14;;;;;;;10.85;9.52;;;19.70;76.60;;;;;;5072793;28;20216;-57
2022/04/22 11:18:42;;;;;;;11.43;9.35;;;19.50;76.30;;;;;;5072634;28;20270;-56
2022/04/22 11:21:14;;;;;;;12.30;9.70;;;19.40;77.20;;;;;;5072217;28;20225;-56
2022/04/22 11:23:44;;;;;;;11.07;9.18;;;19.40;77.50;;;;;;5072346;28;20240;-56
2022/04/22 11:26:14;;;;;;;11.18;10.05;;;19.20;76.70;;;;;;5072495;28;20278;-56
2022/04/22 11:28:43;;;;;;;10.57;9.48;;;19.10;76.60;;;;;;5071712;28;20319;-57
2022/04/22 11:31:12;;;;;;;10.77;9.57;;;19.10;77.00;;;;;;5072140;28;20228;-56
2022/04/22 11:33:52;;;;;;;11.30;10.20;;;19.10;77.40;;;;;;5072317;28;20208;-57
2022/04/22 11:36:19;;;;;;;10.70;9.60;;;19.20;77.40;;;;;;5071982;28;20216;-56
2022/04/22 11:38:47;;;;;;;10.55;9.43;;;19.40;76.60;;;;;;5072263;28;20236;-57
2022/04/22 11:41:16;;;;;;;10.30;9.25;;;19.80;75.60;;;;;;5072041;28;20311;-57
2022/04/22 11:43:43;;;;;;;9.85;8.85;;;20.10;74.40;;;;;;5072075;28;20227;-56
2022/04/22 11:46:11;;;;;;;12.05;9.20;;;20.00;74.40;;;;;;5072269;28;20611;-57
2022/04/22 11:48:46;;;;;;;9.98;9.05;;;20.00;74.70;;;;;;5072015;28;20311;-56
2022/04/22 11:51:13;;;;;;;10.07;8.63;;;19.60;75.40;;;;;;5072242;28;20286;-57
2022/04/22 11:53:46;;;;;;;9.77;8.40;;;19.60;75.80;;;;;;5072413;28;20216;-56
2022/04/22 11:56:19;;;;;;;10.30;8.68;;;19.70;74.70;;;;;;5072211;28;20224;-56
2022/04/22 11:58:47;;;;;;;12.80;10.43;;;19.80;74.60;;;;;;5072398;28;20201;-57
2022/04/22 12:06:42;;;;;;;11.90;9.13;;;20.30;73.70;;;;;;5072356;28;20227;-57
2022/04/22 12:09:09;;;;;;;11.95;8.68;;;20.10;73.40;;;;;;5071662;28;20711;-58
2022/04/22 12:11:42;;;;;;;11.27;8.57;;;19.80;73.70;;;;;;5069067;28;20233;-60
2022/04/22 12:14:09;;;;;;;8.43;7.63;;;19.60;73.60;;;;;;5072095;28;20209;-62
2022/04/22 12:16:38;;;;;;;8.35;7.55;;;19.60;73.80;;;;;;5071613;28;20205;-60
2022/04/22 12:19:08;;;;;;;11.43;7.72;;;19.80;74.20;;;;;;5071736;28;20566;-58
2022/04/22 12:21:35;;;;;;;12.48;9.07;;;19.80;73.40;;;;;;5071221;28;20676;-58
2022/04/22 12:24:03;;;;;;;11.02;9.40;;;19.90;74.00;;;;;;5071462;28;20231;-57
2022/04/22 12:26:34;;;;;;;8.45;7.65;;;20.00;72.50;;;;;;5071368;28;20205;-56
2022/04/22 12:29:10;;;;;;;9.98;8.90;;;20.20;72.70;;;;;;5071717;28;20225;-61
2022/04/22 12:31:39;;;;;;;9.18;8.27;;;20.50;72.20;;;;;;5071622;28;20216;-61
2022/04/22 12:34:08;;;;;;;9.70;8.80;;;20.70;72.00;;;;;;5071673;28;20205;-57
2022/04/22 12:36:37;;;;;;;9.30;8.30;;;20.80;72.00;;;;;;5071603;28;20205;-57
2022/04/22 12:39:05;;;;;;;9.50;8.57;;;20.80;71.20;;;;;;5072323;28;20334;-56
2022/04/22 12:41:42;;;;;;;9.90;8.95;;;20.90;70.90;;;;;;5075321;28;20631;-57
2022/04/22 12:44:14;;;;;;;9.75;8.85;;;21.10;70.30;;;;;;5075660;28;20303;-57
2022/04/22 12:52:20;;;;;;;9.82;8.80;;;20.60;72.00;;;;;;5075067;28;20343;-57
2022/04/22 12:54:48;;;;;;;9.00;7.75;;;20.60;71.60;;;;;;5075559;28;20205;-57
2022/04/22 12:57:20;;;;;;;8.63;7.78;;;20.70;71.10;;;;;;5075069;28;20250;-58
2022/04/22 12:59:50;;;;;;;10.80;8.32;;;21.00;69.60;;;;;;5075000;28;20220;-57
2022/04/22 13:02:18;;;;;;;10.80;8.18;;;21.10;68.90;;;;;;5074816;28;20620;-57
2022/04/22 13:04:54;;;;;;;9.82;8.52;;;21.10;69.80;;;;;;5075334;28;20201;-57
2022/04/22 13:07:22;;;;;;;9.43;8.43;;;21.10;69.50;;;;;;5075325;28;20255;-57
2022/04/22 13:09:49;;;;;;;10.23;8.50;;;21.20;69.50;;;;;;5075049;28;20267;-57
2022/04/22 13:12:16;;;;;;;8.73;7.82;;;21.20;68.70;;;;;;5074637;28;20204;-57
2022/04/22 13:14:43;;;;;;;9.43;8.40;;;21.30;67.90;;;;;;5075189;28;20209;-57
2022/04/22 13:17:20;;;;;;;8.50;7.68;;;21.50;67.30;;;;;;5074742;28;20208;-56
2022/04/22 13:19:47;;;;;;;8.55;7.65;;;21.50;67.70;;;;;;5074551;28;20759;-57
2022/04/22 13:22:14;;;;;;;7.85;7.15;;;21.60;66.50;;;;;;5074438;28;20300;-57
2022/04/22 13:24:44;;;;;;;7.15;6.45;;;21.80;65.90;;;;;;5074636;28;20730;-57
2022/04/22 13:27:11;;;;;;;8.65;7.72;;;22.00;64.50;;;;;;5075075;28;20204;-56
2022/04/22 13:29:38;;;;;;;9.45;7.88;;;22.00;64.50;;;;;;5074457;28;20287;-56
2022/04/22 13:32:05;;;;;;;9.25;8.02;;;21.90;64.80;;;;;;5074478;28;20209;-56
2022/04/22 13:34:33;;;;;;;7.90;7.10;;;21.90;65.50;;;;;;5074525;28;20208;-57
2022/04/22 13:37:00;;;;;;;9.30;7.40;;;21.90;65.50;;;;;;5074311;28;20216;-56
2022/04/22 13:39:27;;;;;;;8.45;7.60;;;21.90;65.50;;;;;;5074112;28;20229;-56
2022/04/22 13:41:53;;;;;;;8.30;7.30;;;22.10;64.70;;;;;;5074462;28;20274;-56
2022/04/22 13:52:30;;;;;;;8.85;7.13;;;21.80;65.30;;;;;;5072820;28;20302;-57
2022/04/22 13:54:57;;;;;;;7.00;6.30;;;22.00;64.20;;;;;;5073897;28;20299;-57
2022/04/22 13:57:23;;;;;;;7.03;6.32;;;22.20;63.90;;;;;;5073432;28;20694;-57
2022/04/22 13:59:50;;;;;;;7.75;6.10;;;22.30;63.90;;;;;;5073366;28;20704;-57
2022/04/22 14:02:17;;;;;;;7.68;5.95;;;22.20;63.60;;;;;;5073408;28;20205;-57